PABR METAR and TAF weather

Enter ICAO airport designator
Station Type Date Time Source
PABR METAR 2019/04/25 09:53 UTC NOAA

PABR 250953Z AUTO 08014KT 10SM OVC017 M12/M14 A3033 RMK AO2 SLP273 T11221144 TSNO


Station Type Date Time Source
PABR Decoded METAR 2019/04/25 09:53 UTC NOAA

POST ROGERS MEMORIAL AIRPORT, AK, United States (PABR) 71-17N 156-46W 10M
Apr 25, 2019 - 05:53 AM EDT / 2019.04.25 0953 UTC
Wind: from the E (080 degrees) at 16 MPH (14 KT):0
Visibility: 10 mile(s):0
Sky conditions: overcast
Temperature: 10.0 F (-12.2 C)
Windchill: -7 F (-22 C):2
Dew Point: 6.1 F (-14.4 C)
Relative Humidity: 83%
Pressure (altimeter): 30.33 in. Hg (1027 hPa)
ob: PABR 250953Z AUTO 08014KT 10SM OVC017 M12/M14 A3033 RMK AO2 SLP273 T11221144 TSNO
cycle: 10

Station Type Date Time Source
PABR TAF 2019/04/25 08:09 UTC NOAA

TAF
AMD PABR 250807Z 2508/2606 08015KT P6SM -SN BKN019
FM250900 11010KT 5SM -SN BKN015
FM251400 11010KT 5SM -SN BR SCT015 BKN035
FM252100 13006KT P6SM BKN035

Example: see airport list